createdAt,value
2022-08-07T00:02:37.182Z,72.34
2022-08-07T00:04:09.236Z,72.63
2022-08-07T00:06:36.459Z,72.43
2022-08-07T00:09:16.116Z,72.11
2022-08-07T00:11:54.206Z,72.08
2022-08-07T00:14:29.825Z,71.56
2022-08-07T00:17:02.515Z,72.18
2022-08-07T00:20:00.209Z,72.58
2022-08-07T00:22:24.937Z,72.91
2022-08-07T00:27:52.796Z,72.74
2022-08-07T00:30:26.349Z,72.72
2022-08-07T00:32:54.839Z,72.10
2022-08-07T00:35:23.091Z,71.36
2022-08-07T00:37:50.190Z,71.95
2022-08-07T00:40:17.531Z,72.67
2022-08-07T00:43:04.179Z,73.07
2022-08-07T00:45:36.738Z,72.91
2022-08-07T00:48:09.273Z,72.69
2022-08-07T00:50:46.105Z,73.35
2022-08-07T00:53:17.580Z,72.90
2022-08-07T00:56:02.646Z,72.51
2022-08-07T00:58:30.551Z,72.62
2022-08-07T01:00:58.041Z,72.42
2022-08-07T01:03:25.473Z,72.47
2022-08-07T01:06:12.392Z,72.93
2022-08-07T01:08:43.040Z,73.02
2022-08-07T01:12:27.439Z,73.15
2022-08-07T01:14:05.010Z,73.33
2022-08-07T01:16:31.954Z,73.39
2022-08-07T01:18:58.571Z,73.89
2022-08-07T01:21:26.983Z,73.86
2022-08-07T01:23:57.004Z,74.20
2022-08-07T01:26:26.117Z,73.83
2022-08-07T01:28:54.550Z,73.37
2022-08-07T01:31:27.850Z,73.52
2022-08-07T01:34:08.476Z,74.10
2022-08-07T01:36:40.421Z,73.68
2022-08-07T01:39:10.171Z,73.23
2022-08-07T01:41:38.910Z,73.00
2022-08-07T01:44:07.679Z,73.60
2022-08-07T01:46:34.638Z,73.14
2022-08-07T01:49:02.419Z,73.42
2022-08-07T01:52:03.503Z,73.77
2022-08-07T01:54:33.128Z,73.59
2022-08-07T01:57:24.969Z,73.76
2022-08-07T02:00:01.834Z,73.98
2022-08-07T02:03:18.938Z,73.65
2022-08-07T02:06:01.097Z,73.50
2022-08-07T02:08:30.526Z,73.91
2022-08-07T02:11:00.063Z,73.83
2022-08-07T02:13:57.713Z,73.94
2022-08-07T02:16:20.089Z,74.15
2022-08-07T02:18:56.529Z,74.43
2022-08-07T02:21:25.335Z,75.03
2022-08-07T02:23:53.155Z,75.12
2022-08-07T02:26:32.313Z,74.72
2022-08-07T02:29:03.000Z,74.91
2022-08-07T02:31:31.133Z,75.32
2022-08-07T02:34:02.955Z,74.77
2022-08-07T02:36:32.762Z,73.56
2022-08-07T02:39:16.034Z,73.84
2022-08-07T02:41:47.257Z,73.91
2022-08-07T02:44:18.615Z,73.51
2022-08-07T02:46:52.536Z,73.51
2022-08-07T02:49:29.198Z,73.57
2022-08-07T02:52:12.973Z,73.67
2022-08-07T02:54:42.434Z,73.63
2022-08-07T02:57:15.809Z,73.82
2022-08-07T03:00:00.891Z,73.89
2022-08-07T03:02:28.491Z,74.06
2022-08-07T03:04:56.433Z,74.42
2022-08-07T03:08:05.109Z,74.76
2022-08-07T03:10:14.297Z,74.16
2022-08-07T03:12:42.045Z,72.83
2022-08-07T03:15:10.781Z,73.48
2022-08-07T03:17:52.887Z,73.36
2022-08-07T03:20:20.150Z,73.19
2022-08-07T03:22:50.307Z,72.71
2022-08-07T03:25:18.253Z,72.93
2022-08-07T03:28:08.953Z,72.96
2022-08-07T03:30:37.456Z,73.75
2022-08-07T03:33:05.148Z,73.87
2022-08-07T03:35:43.971Z,74.33
2022-08-07T03:38:17.915Z,74.11
2022-08-07T03:40:57.169Z,73.62
2022-08-07T03:43:26.593Z,73.93
2022-08-07T03:45:59.634Z,74.27
2022-08-07T03:48:26.940Z,74.45
2022-08-07T03:50:57.910Z,74.96
2022-08-07T03:54:00.633Z,75.21
2022-08-07T03:56:16.276Z,74.71
2022-08-07T03:59:08.019Z,74.51
2022-08-07T04:01:32.241Z,73.76
2022-08-07T04:03:59.183Z,74.58
2022-08-07T04:06:38.400Z,74.76
2022-08-07T04:09:06.518Z,74.95
2022-08-07T04:12:25.061Z,75.15
2022-08-07T04:14:37.778Z,74.74
2022-08-07T04:17:21.255Z,74.87
2022-08-07T04:19:52.666Z,74.99
2022-08-07T04:22:27.555Z,75.27
2022-08-07T04:24:58.100Z,75.59
2022-08-07T04:27:26.444Z,74.96
2022-08-07T04:29:58.244Z,74.50
2022-08-07T04:32:34.319Z,74.81
2022-08-07T04:35:05.741Z,75.17
2022-08-07T04:38:00.931Z,75.35
2022-08-07T04:40:20.616Z,75.54
2022-08-07T04:42:51.825Z,75.16
2022-08-07T04:45:22.804Z,75.58
2022-08-07T04:48:12.926Z,75.25
2022-08-07T04:50:45.422Z,75.48
2022-08-07T04:54:01.064Z,75.50
2022-08-07T04:58:16.699Z,75.73
2022-08-07T05:00:09.602Z,75.81
2022-08-07T05:02:43.850Z,75.77
2022-08-07T05:05:53.606Z,75.78
2022-08-07T05:08:58.995Z,76.05
2022-08-07T05:11:57.231Z,76.49
2022-08-07T05:14:53.899Z,76.22
2022-08-07T05:18:00.879Z,76.05
2022-08-07T05:20:09.976Z,75.96
2022-08-07T05:22:39.137Z,76.05
2022-08-07T05:25:08.771Z,75.88
2022-08-07T05:28:16.167Z,75.89
2022-08-07T05:30:32.415Z,76.31
2022-08-07T05:33:02.478Z,76.12
2022-08-07T05:35:33.077Z,76.25
2022-08-07T05:38:08.322Z,75.88
2022-08-07T05:40:49.547Z,76.04
2022-08-07T05:43:18.592Z,75.72
2022-08-07T05:45:48.138Z,74.96
2022-08-07T05:48:15.584Z,75.00
2022-08-07T05:50:43.569Z,74.81
2022-08-07T05:54:13.219Z,74.55
2022-08-07T05:56:03.636Z,74.42
2022-08-07T05:58:37.139Z,74.34
2022-08-07T06:01:10.644Z,74.14
2022-08-07T06:03:56.915Z,74.59
2022-08-07T06:06:32.195Z,73.87
2022-08-07T06:09:01.056Z,73.41
2022-08-07T06:11:28.360Z,73.37
2022-08-07T06:14:11.884Z,73.35
2022-08-07T06:16:50.734Z,72.46
2022-08-07T06:19:52.335Z,71.95
2022-08-07T06:22:22.603Z,71.55
2022-08-07T06:24:56.815Z,71.40
2022-08-07T06:27:44.258Z,71.47
2022-08-07T06:30:24.064Z,71.09
2022-08-07T06:32:59.059Z,71.02
2022-08-07T06:35:30.557Z,71.11
2022-08-07T06:38:09.983Z,70.71
2022-08-07T06:40:53.197Z,70.27
2022-08-07T06:43:23.559Z,69.74
2022-08-07T06:45:50.830Z,69.14
2022-08-07T06:48:25.218Z,68.71
2022-08-07T06:50:54.768Z,68.10
2022-08-07T06:55:29.446Z,68.07
2022-08-07T06:56:15.173Z,67.33
2022-08-07T07:00:13.923Z,67.02
2022-08-07T07:01:43.972Z,66.74
2022-08-07T07:04:28.418Z,65.62
2022-08-07T07:07:01.138Z,65.29
2022-08-07T07:09:31.377Z,64.53
2022-08-07T07:12:07.848Z,64.40
2022-08-07T07:14:58.063Z,64.19
2022-08-07T07:17:54.452Z,64.19
2022-08-07T07:20:29.738Z,63.01
2022-08-07T07:24:09.622Z,63.44
2022-08-07T07:26:32.288Z,62.99
2022-08-07T07:29:22.726Z,62.81
2022-08-07T07:31:46.948Z,62.30
2022-08-07T07:34:30.806Z,61.42
2022-08-07T07:37:14.503Z,60.89
2022-08-07T07:39:54.744Z,59.96
2022-08-07T07:42:25.892Z,59.16
2022-08-07T07:45:04.142Z,60.05
2022-08-07T07:47:52.250Z,58.40
2022-08-07T07:50:33.398Z,57.50
2022-08-07T07:53:20.401Z,57.03
2022-08-07T07:55:54.951Z,57.29
2022-08-07T07:58:31.006Z,57.10
2022-08-07T08:02:02.856Z,56.24
2022-08-07T08:04:10.100Z,57.33
2022-08-07T08:06:40.718Z,56.06
2022-08-07T08:09:20.565Z,55.56
2022-08-07T08:12:02.199Z,56.77
2022-08-07T08:14:32.168Z,54.84
2022-08-07T08:17:55.655Z,55.08
2022-08-07T08:20:18.198Z,55.27
2022-08-07T08:22:59.831Z,54.40
2022-08-07T08:25:49.100Z,54.63
2022-08-07T08:28:24.100Z,54.50
2022-08-07T08:31:07.707Z,52.34
2022-08-07T08:33:49.022Z,54.18
2022-08-07T08:36:16.982Z,53.06
2022-08-07T08:38:46.148Z,52.43
2022-08-07T08:41:18.294Z,51.84
2022-08-07T08:44:10.880Z,51.15
2022-08-07T08:46:50.525Z,51.51
2022-08-07T08:49:33.432Z,51.12
2022-08-07T08:52:30.473Z,50.59
2022-08-07T08:55:55.496Z,50.91
2022-08-07T08:58:31.986Z,51.04
2022-08-07T09:01:19.221Z,50.17
2022-08-07T09:03:56.774Z,50.31
2022-08-07T09:06:40.380Z,48.64
2022-08-07T09:09:30.186Z,47.65
2022-08-07T09:12:31.082Z,46.73
2022-08-07T09:16:20.114Z,48.48
2022-08-07T09:18:15.802Z,46.05
2022-08-07T09:20:57.988Z,47.39
2022-08-07T09:26:39.216Z,47.50
2022-08-07T09:30:03.759Z,46.08
2022-08-07T09:32:57.827Z,46.82
2022-08-07T09:36:04.386Z,46.19
2022-08-07T09:38:42.518Z,45.19
2022-08-07T09:41:58.984Z,45.31
2022-08-07T09:47:24.464Z,44.64
2022-08-07T09:47:56.088Z,44.23
2022-08-07T09:50:40.398Z,45.98
2022-08-07T09:53:12.661Z,44.14
2022-08-07T09:56:13.587Z,44.43
2022-08-07T09:58:53.587Z,42.49
2022-08-07T10:01:51.018Z,43.65
2022-08-07T10:04:52.735Z,43.91
2022-08-07T10:07:53.411Z,43.32
2022-08-07T10:11:07.774Z,44.08
2022-08-07T10:14:00.733Z,42.93
2022-08-07T10:17:00.830Z,40.87
2022-08-07T10:19:39.778Z,42.15
2022-08-07T10:22:38.973Z,42.65
2022-08-07T10:25:42.824Z,42.64
2022-08-07T10:28:31.015Z,41.71
2022-08-07T10:31:11.734Z,42.55
2022-08-07T10:34:18.232Z,42.27
2022-08-07T10:37:18.879Z,42.93
2022-08-07T10:40:03.532Z,44.27
2022-08-07T10:42:51.848Z,44.00
2022-08-07T10:45:57.609Z,44.33
2022-08-07T10:48:41.421Z,45.06
2022-08-07T10:51:38.876Z,45.56
2022-08-07T10:54:17.404Z,44.60
2022-08-07T10:57:06.293Z,42.87
2022-08-07T10:59:48.341Z,43.67
2022-08-07T11:02:49.455Z,44.33
2022-08-07T11:05:48.912Z,42.67
2022-08-07T11:08:36.479Z,43.54
2022-08-07T11:11:35.964Z,44.22
2022-08-07T11:14:45.535Z,41.62
2022-08-07T11:17:01.808Z,43.07
2022-08-07T11:19:52.981Z,43.86
2022-08-07T11:22:43.957Z,42.60
2022-08-07T11:25:21.518Z,42.90
2022-08-07T11:28:15.494Z,43.29
2022-08-07T11:30:52.298Z,42.32
2022-08-07T11:33:53.926Z,43.20
2022-08-07T11:36:25.470Z,42.26
2022-08-07T11:39:19.732Z,42.90
2022-08-07T11:42:21.823Z,42.77
2022-08-07T11:45:35.528Z,42.41
2022-08-07T11:48:29.748Z,42.58
2022-08-07T11:51:40.832Z,42.50
2022-08-07T11:54:35.944Z,43.20
2022-08-07T11:58:00.526Z,41.73
2022-08-07T12:00:24.542Z,40.67
2022-08-07T12:03:44.874Z,42.07
2022-08-07T12:06:57.279Z,42.47
2022-08-07T12:09:42.895Z,41.17
2022-08-07T12:12:18.870Z,40.74
2022-08-07T12:15:00.236Z,41.21
2022-08-07T12:17:37.345Z,41.68
2022-08-07T12:20:18.589Z,41.02
2022-08-07T12:23:10.231Z,39.96
2022-08-07T12:26:23.268Z,41.40
2022-08-07T12:28:56.165Z,40.29
2022-08-07T12:31:52.559Z,39.66
2022-08-07T12:34:20.539Z,40.35
2022-08-07T12:36:49.600Z,40.51
2022-08-07T12:39:42.567Z,40.62
2022-08-07T12:42:10.441Z,41.10
2022-08-07T12:44:45.106Z,40.65
2022-08-07T12:47:21.762Z,39.78
2022-08-07T12:50:38.088Z,40.02
2022-08-07T12:54:36.418Z,38.69
2022-08-07T12:56:35.957Z,39.73
2022-08-07T12:59:08.411Z,39.41
2022-08-07T13:02:02.877Z,41.15
2022-08-07T13:05:01.456Z,41.59
2022-08-07T13:08:13.444Z,40.14
2022-08-07T13:10:51.537Z,41.11
2022-08-07T13:13:48.559Z,40.48
2022-08-07T13:16:31.071Z,40.43
2022-08-07T13:19:11.351Z,39.18
2022-08-07T13:22:02.082Z,38.85
2022-08-07T13:24:52.444Z,37.88
2022-08-07T13:27:23.223Z,39.21
2022-08-07T13:30:18.864Z,39.69
2022-08-07T13:34:14.862Z,40.68
2022-08-07T13:36:09.846Z,41.62
2022-08-07T13:39:03.117Z,39.16
2022-08-07T13:41:47.473Z,38.50
2022-08-07T13:44:26.090Z,38.95
2022-08-07T13:46:58.833Z,38.33
2022-08-07T13:50:34.784Z,36.90
2022-08-07T13:52:32.107Z,37.48
2022-08-07T13:55:11.036Z,36.88
2022-08-07T13:57:59.043Z,37.17
2022-08-07T14:00:39.682Z,37.14
2022-08-07T14:03:29.160Z,36.93
2022-08-07T14:06:13.870Z,35.20
2022-08-07T14:08:48.740Z,35.49
2022-08-07T14:11:23.240Z,35.83
2022-08-07T14:13:58.250Z,35.86
2022-08-07T14:16:31.276Z,36.80
2022-08-07T14:19:01.545Z,34.29
2022-08-07T14:22:01.717Z,35.56
2022-08-07T14:24:47.980Z,35.83
2022-08-07T14:28:10.809Z,35.64
2022-08-07T14:30:12.681Z,35.85
2022-08-07T14:32:45.572Z,35.71
2022-08-07T14:35:45.646Z,35.16
2022-08-07T14:38:26.889Z,35.87
2022-08-07T14:41:03.839Z,36.22
2022-08-07T14:46:30.703Z,35.04
2022-08-07T14:49:00.251Z,36.88
2022-08-07T14:52:04.280Z,36.16
2022-08-07T14:54:41.912Z,36.17
2022-08-07T15:00:06.684Z,35.88
2022-08-07T15:02:35.070Z,36.39
2022-08-07T15:05:04.664Z,37.03
2022-08-07T15:07:52.251Z,35.40
2022-08-07T15:13:16.640Z,36.37
2022-08-07T15:15:52.684Z,36.00
2022-08-07T15:18:28.571Z,36.25
2022-08-07T15:21:08.219Z,36.64
2022-08-07T15:26:36.845Z,35.55
2022-08-07T15:30:04.694Z,35.88
2022-08-07T15:32:01.876Z,35.27
2022-08-07T15:34:55.504Z,35.49
2022-08-07T15:38:17.847Z,35.13
2022-08-07T15:46:32.155Z,36.47
2022-08-07T15:49:12.859Z,36.69
2022-08-07T15:54:39.410Z,35.46
2022-08-07T15:57:10.788Z,35.31
2022-08-07T15:59:59.359Z,36.59
2022-08-07T16:02:29.963Z,37.94
2022-08-07T16:05:04.284Z,36.74
2022-08-07T16:08:31.291Z,37.86
2022-08-07T16:10:59.887Z,37.51
2022-08-07T16:13:59.780Z,38.09
2022-08-07T16:16:59.904Z,39.26
2022-08-07T16:19:42.883Z,39.22
2022-08-07T16:22:56.571Z,39.70
2022-08-07T16:25:55.093Z,39.45
2022-08-07T16:30:05.842Z,40.09
2022-08-07T16:31:57.589Z,40.01
2022-08-07T16:34:31.871Z,40.78
2022-08-07T16:37:01.696Z,40.88
2022-08-07T16:39:33.542Z,40.08
2022-08-07T16:42:24.999Z,40.22
2022-08-07T16:45:15.516Z,40.08
2022-08-07T16:47:54.613Z,40.05
2022-08-07T16:50:37.047Z,40.77
2022-08-07T16:54:02.259Z,41.41
2022-08-07T16:56:17.293Z,42.00
2022-08-07T16:59:20.793Z,42.52
2022-08-07T17:02:51.529Z,42.76
2022-08-07T17:06:02.235Z,43.25
2022-08-07T17:08:01.880Z,43.19
2022-08-07T17:10:55.609Z,43.62
2022-08-07T17:13:41.369Z,43.69
2022-08-07T17:16:25.463Z,44.28
2022-08-07T17:18:51.945Z,43.57
2022-08-07T17:21:50.596Z,43.60
2022-08-07T17:24:47.985Z,43.96
2022-08-07T17:27:19.802Z,44.26
2022-08-07T17:30:15.779Z,44.57
2022-08-07T17:34:09.887Z,44.79
2022-08-07T17:36:26.235Z,45.08
2022-08-07T17:39:21.709Z,45.40
2022-08-07T17:42:01.595Z,45.61
2022-08-07T17:44:45.545Z,46.08
2022-08-07T17:47:38.624Z,46.19
2022-08-07T17:50:30.446Z,46.29
2022-08-07T17:53:00.516Z,47.07
2022-08-07T17:55:54.929Z,46.70
2022-08-07T17:58:31.585Z,46.52
2022-08-07T18:01:02.871Z,47.16
2022-08-07T18:04:06.848Z,47.38
2022-08-07T18:07:19.470Z,46.67
2022-08-07T18:09:48.435Z,47.25
2022-08-07T18:12:48.106Z,47.37
2022-08-07T18:15:32.516Z,47.45
2022-08-07T18:19:02.457Z,47.64
2022-08-07T18:21:38.380Z,48.11
2022-08-07T18:24:07.019Z,48.03
2022-08-07T18:26:48.730Z,48.03
2022-08-07T18:30:05.978Z,48.26
2022-08-07T18:32:52.851Z,48.50
2022-08-07T18:35:30.351Z,48.59
2022-08-07T18:38:56.384Z,48.46
2022-08-07T18:41:57.598Z,48.71
2022-08-07T18:44:45.985Z,48.63
2022-08-07T18:48:00.776Z,48.58
2022-08-07T18:50:47.021Z,49.29
2022-08-07T18:53:22.051Z,49.38
2022-08-07T18:56:33.770Z,49.12
2022-08-07T18:59:47.341Z,48.99
2022-08-07T19:02:34.367Z,49.71
2022-08-07T19:06:03.339Z,49.99
2022-08-07T19:08:26.506Z,50.02
2022-08-07T19:11:00.678Z,50.54
2022-08-07T19:13:55.437Z,50.37
2022-08-07T19:17:01.308Z,50.58
2022-08-07T19:19:28.001Z,50.71
2022-08-07T19:22:11.203Z,51.41
2022-08-07T19:24:46.243Z,51.66
2022-08-07T19:28:56.699Z,51.91
2022-08-07T19:31:05.372Z,52.09
2022-08-07T19:33:10.293Z,53.00
2022-08-07T19:35:42.454Z,53.10
2022-08-07T19:38:16.985Z,53.18
2022-08-07T19:40:49.452Z,53.50
2022-08-07T19:43:43.622Z,53.76
2022-08-07T19:46:10.698Z,54.26
2022-08-07T19:48:42.926Z,54.60
2022-08-07T19:51:19.203Z,54.88
2022-08-07T19:54:31.283Z,54.91
2022-08-07T19:58:00.785Z,55.24
2022-08-07T19:59:41.825Z,55.34
2022-08-07T20:02:19.003Z,56.33
2022-08-07T20:04:49.491Z,55.74
2022-08-07T20:07:23.962Z,55.73
2022-08-07T20:10:34.195Z,56.16
2022-08-07T20:12:54.966Z,56.13
2022-08-07T20:15:33.159Z,56.40
2022-08-07T20:18:06.337Z,56.71
2022-08-07T20:20:45.493Z,56.70
2022-08-07T20:23:41.963Z,57.06
2022-08-07T20:26:10.162Z,57.31
2022-08-07T20:28:39.890Z,57.76
2022-08-07T20:31:21.197Z,57.97
2022-08-07T20:33:56.702Z,58.75
2022-08-07T20:36:25.250Z,58.43
2022-08-07T20:39:00.318Z,58.90
2022-08-07T20:41:38.533Z,58.87
2022-08-07T20:44:12.626Z,59.24
2022-08-07T20:46:44.565Z,59.11
2022-08-07T20:49:57.884Z,59.30
2022-08-07T20:52:09.309Z,59.54
2022-08-07T20:54:45.627Z,59.61
2022-08-07T20:57:28.184Z,59.94
2022-08-07T21:00:06.501Z,60.33
2022-08-07T21:02:58.746Z,59.93
2022-08-07T21:05:51.461Z,60.47
2022-08-07T21:08:16.535Z,61.03
2022-08-07T21:10:50.749Z,61.01
2022-08-07T21:13:24.690Z,61.21
2022-08-07T21:16:09.146Z,61.58
2022-08-07T21:18:41.065Z,61.92
2022-08-07T21:21:16.434Z,61.91
2022-08-07T21:24:01.799Z,62.06
2022-08-07T21:26:54.940Z,62.25
2022-08-07T21:29:37.433Z,62.79
2022-08-07T21:32:47.132Z,62.77
2022-08-07T21:35:11.597Z,62.64
2022-08-07T21:37:58.439Z,62.96
2022-08-07T21:40:39.013Z,63.19
2022-08-07T21:43:13.927Z,63.55
2022-08-07T21:46:05.299Z,63.72
2022-08-07T21:48:48.298Z,63.91
2022-08-07T21:52:02.067Z,63.95
2022-08-07T21:54:34.366Z,64.46
2022-08-07T21:57:31.362Z,64.09
2022-08-07T22:00:20.508Z,64.93
2022-08-07T22:03:16.480Z,64.70
2022-08-07T22:05:50.059Z,65.27
2022-08-07T22:08:23.348Z,65.46
2022-08-07T22:10:57.927Z,65.74
2022-08-07T22:13:52.014Z,66.15
2022-08-07T22:16:44.258Z,65.98
2022-08-07T22:19:29.801Z,66.60
2022-08-07T22:22:21.086Z,67.08
2022-08-07T22:25:13.230Z,67.08
2022-08-07T22:28:10.261Z,67.07
2022-08-07T22:30:52.877Z,66.86
2022-08-07T22:33:53.221Z,67.86
2022-08-07T22:36:25.119Z,67.77
2022-08-07T22:38:58.963Z,68.70
2022-08-07T22:42:03.061Z,69.08
2022-08-07T22:44:24.832Z,69.85
2022-08-07T22:47:24.623Z,69.64
2022-08-07T22:50:10.498Z,70.21
2022-08-07T22:52:43.240Z,70.61
2022-08-07T22:55:30.053Z,70.43
2022-08-07T22:58:18.346Z,70.06
2022-08-07T23:01:12.830Z,70.25
2022-08-07T23:04:03.455Z,70.94
2022-08-07T23:06:51.521Z,71.26
2022-08-07T23:10:00.772Z,71.01
2022-08-07T23:13:00.585Z,71.51
2022-08-07T23:16:06.832Z,71.52
2022-08-07T23:19:13.714Z,72.30
2022-08-07T23:21:59.543Z,72.16
2022-08-07T23:24:56.241Z,71.94
2022-08-07T23:27:37.834Z,71.91
2022-08-07T23:31:06.399Z,72.13
2022-08-07T23:34:36.601Z,72.04
2022-08-07T23:37:19.256Z,71.93
2022-08-07T23:40:24.094Z,71.31
2022-08-07T23:43:38.208Z,71.29
2022-08-07T23:46:23.818Z,71.36
2022-08-07T23:49:19.102Z,71.55
2022-08-07T23:52:59.710Z,71.44
2022-08-07T23:54:53.193Z,72.02
2022-08-07T23:57:39.073Z,72.02
